sensor_id;sensor_type;location;lat;lon;timestamp;temperature;humidity
16627;DHT22;8427;52.204;7.202;2024-03-08T00:00:12;1.50;86.60
16627;DHT22;8427;52.204;7.202;2024-03-08T00:02:43;1.50;86.60
16627;DHT22;8427;52.204;7.202;2024-03-08T00:05:15;1.50;86.50
16627;DHT22;8427;52.204;7.202;2024-03-08T00:07:44;1.40;86.50
16627;DHT22;8427;52.204;7.202;2024-03-08T00:10:12;1.40;86.20
16627;DHT22;8427;52.204;7.202;2024-03-08T00:12:42;1.40;85.70
16627;DHT22;8427;52.204;7.202;2024-03-08T00:15:10;1.40;85.30
16627;DHT22;8427;52.204;7.202;2024-03-08T00:17:42;1.50;85.30
16627;DHT22;8427;52.204;7.202;2024-03-08T00:20:10;1.30;85.20
16627;DHT22;8427;52.204;7.202;2024-03-08T00:22:42;1.60;85.10
16627;DHT22;8427;52.204;7.202;2024-03-08T00:25:10;1.40;84.70
16627;DHT22;8427;52.204;7.202;2024-03-08T00:27:39;1.60;84.30
16627;DHT22;8427;52.204;7.202;2024-03-08T00:30:08;1.80;83.50
16627;DHT22;8427;52.204;7.202;2024-03-08T00:32:37;1.70;83.00
16627;DHT22;8427;52.204;7.202;2024-03-08T00:35:05;1.70;82.60
16627;DHT22;8427;52.204;7.202;2024-03-08T00:37:34;1.80;82.30
16627;DHT22;8427;52.204;7.202;2024-03-08T00:40:04;1.80;82.20
16627;DHT22;8427;52.204;7.202;2024-03-08T00:42:36;1.90;81.70
16627;DHT22;8427;52.204;7.202;2024-03-08T00:45:05;2.00;81.50
16627;DHT22;8427;52.204;7.202;2024-03-08T00:47:33;1.80;81.60
16627;DHT22;8427;52.204;7.202;2024-03-08T00:50:01;1.90;81.40
16627;DHT22;8427;52.204;7.202;2024-03-08T00:52:31;1.80;81.20
16627;DHT22;8427;52.204;7.202;2024-03-08T00:55:01;2.00;81.00
16627;DHT22;8427;52.204;7.202;2024-03-08T00:57:31;2.10;80.80
16627;DHT22;8427;52.204;7.202;2024-03-08T00:59:59;1.90;80.40
16627;DHT22;8427;52.204;7.202;2024-03-08T01:02:27;2.10;80.40
16627;DHT22;8427;52.204;7.202;2024-03-08T01:04:56;2.10;80.40
16627;DHT22;8427;52.204;7.202;2024-03-08T01:07:24;2.00;80.60
16627;DHT22;8427;52.204;7.202;2024-03-08T01:09:52;2.00;80.30
16627;DHT22;8427;52.204;7.202;2024-03-08T01:12:20;2.00;80.20
16627;DHT22;8427;52.204;7.202;2024-03-08T01:14:50;1.90;80.40
16627;DHT22;8427;52.204;7.202;2024-03-08T01:17:18;2.10;80.40
16627;DHT22;8427;52.204;7.202;2024-03-08T01:19:46;1.90;80.20
16627;DHT22;8427;52.204;7.202;2024-03-08T01:22:14;1.80;80.40
16627;DHT22;8427;52.204;7.202;2024-03-08T01:24:41;2.00;80.20
16627;DHT22;8427;52.204;7.202;2024-03-08T01:27:09;1.80;80.50
16627;DHT22;8427;52.204;7.202;2024-03-08T01:29:39;1.70;80.60
16627;DHT22;8427;52.204;7.202;2024-03-08T01:32:08;1.80;80.60
16627;DHT22;8427;52.204;7.202;2024-03-08T01:34:36;1.70;80.50
16627;DHT22;8427;52.204;7.202;2024-03-08T01:37:04;1.90;80.60
16627;DHT22;8427;52.204;7.202;2024-03-08T01:39:33;1.60;80.60
16627;DHT22;8427;52.204;7.202;2024-03-08T01:42:01;1.80;80.60
16627;DHT22;8427;52.204;7.202;2024-03-08T01:44:29;1.50;80.50
16627;DHT22;8427;52.204;7.202;2024-03-08T01:46:58;1.60;80.90
16627;DHT22;8427;52.204;7.202;2024-03-08T01:49:27;1.70;80.70
16627;DHT22;8427;52.204;7.202;2024-03-08T01:51:57;1.70;80.50
16627;DHT22;8427;52.204;7.202;2024-03-08T01:54:25;1.60;80.40
16627;DHT22;8427;52.204;7.202;2024-03-08T01:56:54;1.50;80.40
16627;DHT22;8427;52.204;7.202;2024-03-08T01:59:22;1.50;80.50
16627;DHT22;8427;52.204;7.202;2024-03-08T02:01:50;1.60;80.50
16627;DHT22;8427;52.204;7.202;2024-03-08T02:04:19;1.40;80.50
16627;DHT22;8427;52.204;7.202;2024-03-08T02:06:50;1.60;80.50
16627;DHT22;8427;52.204;7.202;2024-03-08T02:09:18;1.60;80.70
16627;DHT22;8427;52.204;7.202;2024-03-08T02:11:46;1.50;80.90
16627;DHT22;8427;52.204;7.202;2024-03-08T02:14:14;1.50;80.90
16627;DHT22;8427;52.204;7.202;2024-03-08T02:16:42;1.30;81.00
16627;DHT22;8427;52.204;7.202;2024-03-08T02:19:10;1.40;81.10
16627;DHT22;8427;52.204;7.202;2024-03-08T02:21:40;1.30;81.10
16627;DHT22;8427;52.204;7.202;2024-03-08T02:24:08;1.30;81.20
16627;DHT22;8427;52.204;7.202;2024-03-08T02:26:36;1.30;81.30
16627;DHT22;8427;52.204;7.202;2024-03-08T02:29:04;1.20;81.30
16627;DHT22;8427;52.204;7.202;2024-03-08T02:31:33;1.30;81.40
16627;DHT22;8427;52.204;7.202;2024-03-08T02:34:01;1.20;81.50
16627;DHT22;8427;52.204;7.202;2024-03-08T02:36:29;1.30;81.70
16627;DHT22;8427;52.204;7.202;2024-03-08T02:39:01;1.30;81.50
16627;DHT22;8427;52.204;7.202;2024-03-08T02:41:29;1.20;81.60
16627;DHT22;8427;52.204;7.202;2024-03-08T02:43:57;1.20;81.30
16627;DHT22;8427;52.204;7.202;2024-03-08T02:46:26;1.20;81.40
16627;DHT22;8427;52.204;7.202;2024-03-08T02:48:54;1.30;81.30
16627;DHT22;8427;52.204;7.202;2024-03-08T02:51:22;1.10;81.30
16627;DHT22;8427;52.204;7.202;2024-03-08T02:53:53;1.20;81.00
16627;DHT22;8427;52.204;7.202;2024-03-08T02:56:22;1.40;81.20
16627;DHT22;8427;52.204;7.202;2024-03-08T02:58:50;1.10;81.20
16627;DHT22;8427;52.204;7.202;2024-03-08T03:01:18;1.40;81.50
16627;DHT22;8427;52.204;7.202;2024-03-08T03:03:47;1.00;81.60
16627;DHT22;8427;52.204;7.202;2024-03-08T03:06:15;1.10;81.90
16627;DHT22;8427;52.204;7.202;2024-03-08T03:08:43;1.10;81.70
16627;DHT22;8427;52.204;7.202;2024-03-08T03:11:12;1.30;81.50
16627;DHT22;8427;52.204;7.202;2024-03-08T03:13:42;1.10;81.70
16627;DHT22;8427;52.204;7.202;2024-03-08T03:16:18;1.00;81.20
16627;DHT22;8427;52.204;7.202;2024-03-08T03:18:47;1.00;81.50
16627;DHT22;8427;52.204;7.202;2024-03-08T03:21:16;1.20;81.10
16627;DHT22;8427;52.204;7.202;2024-03-08T03:23:44;1.20;81.00
16627;DHT22;8427;52.204;7.202;2024-03-08T03:26:12;1.20;81.20
16627;DHT22;8427;52.204;7.202;2024-03-08T03:28:41;1.10;81.10
16627;DHT22;8427;52.204;7.202;2024-03-08T03:31:09;1.00;81.20
16627;DHT22;8427;52.204;7.202;2024-03-08T03:33:40;1.10;81.40
16627;DHT22;8427;52.204;7.202;2024-03-08T03:36:08;1.30;81.00
16627;DHT22;8427;52.204;7.202;2024-03-08T03:38:37;1.10;81.20
16627;DHT22;8427;52.204;7.202;2024-03-08T03:41:05;1.00;81.90
16627;DHT22;8427;52.204;7.202;2024-03-08T03:43:37;0.70;81.90
16627;DHT22;8427;52.204;7.202;2024-03-08T03:46:07;0.70;81.70
16627;DHT22;8427;52.204;7.202;2024-03-08T03:48:38;0.80;81.70
16627;DHT22;8427;52.204;7.202;2024-03-08T03:51:06;0.90;81.70
16627;DHT22;8427;52.204;7.202;2024-03-08T03:53:34;0.60;81.90
16627;DHT22;8427;52.204;7.202;2024-03-08T03:56:02;0.80;82.20
16627;DHT22;8427;52.204;7.202;2024-03-08T03:58:33;0.70;82.10
16627;DHT22;8427;52.204;7.202;2024-03-08T04:01:01;0.70;81.90
16627;DHT22;8427;52.204;7.202;2024-03-08T04:03:33;0.60;82.30
16627;DHT22;8427;52.204;7.202;2024-03-08T04:06:01;0.70;82.60
16627;DHT22;8427;52.204;7.202;2024-03-08T04:08:29;0.70;82.60
16627;DHT22;8427;52.204;7.202;2024-03-08T04:10:57;0.60;82.50
16627;DHT22;8427;52.204;7.202;2024-03-08T04:13:26;0.80;82.20
16627;DHT22;8427;52.204;7.202;2024-03-08T04:15:54;0.80;82.10
16627;DHT22;8427;52.204;7.202;2024-03-08T04:18:22;0.70;81.90
16627;DHT22;8427;52.204;7.202;2024-03-08T04:20:51;0.70;82.00
16627;DHT22;8427;52.204;7.202;2024-03-08T04:23:19;0.60;81.80
16627;DHT22;8427;52.204;7.202;2024-03-08T04:25:48;0.60;82.10
16627;DHT22;8427;52.204;7.202;2024-03-08T04:28:15;0.70;82.00
16627;DHT22;8427;52.204;7.202;2024-03-08T04:30:43;0.70;82.00
16627;DHT22;8427;52.204;7.202;2024-03-08T04:33:12;0.50;81.90
16627;DHT22;8427;52.204;7.202;2024-03-08T04:35:43;0.60;82.00
16627;DHT22;8427;52.204;7.202;2024-03-08T04:38:14;0.70;82.10
16627;DHT22;8427;52.204;7.202;2024-03-08T04:40:42;0.60;82.30
16627;DHT22;8427;52.204;7.202;2024-03-08T04:43:10;0.80;82.40
16627;DHT22;8427;52.204;7.202;2024-03-08T04:45:38;0.60;82.30
16627;DHT22;8427;52.204;7.202;2024-03-08T04:48:06;0.70;82.60
16627;DHT22;8427;52.204;7.202;2024-03-08T04:50:34;0.60;82.50
16627;DHT22;8427;52.204;7.202;2024-03-08T04:53:03;0.50;82.80
16627;DHT22;8427;52.204;7.202;2024-03-08T04:55:36;0.50;83.10
16627;DHT22;8427;52.204;7.202;2024-03-08T04:58:04;0.70;82.60
16627;DHT22;8427;52.204;7.202;2024-03-08T05:00:32;0.60;82.60
16627;DHT22;8427;52.204;7.202;2024-03-08T05:03:00;0.60;82.70
16627;DHT22;8427;52.204;7.202;2024-03-08T05:05:28;0.70;82.60
16627;DHT22;8427;52.204;7.202;2024-03-08T05:07:56;0.60;82.50
16627;DHT22;8427;52.204;7.202;2024-03-08T05:10:25;0.50;82.30
16627;DHT22;8427;52.204;7.202;2024-03-08T05:12:54;0.80;82.00
16627;DHT22;8427;52.204;7.202;2024-03-08T05:15:23;0.60;82.00
16627;DHT22;8427;52.204;7.202;2024-03-08T05:17:51;0.70;81.90
16627;DHT22;8427;52.204;7.202;2024-03-08T05:20:19;0.70;81.90
16627;DHT22;8427;52.204;7.202;2024-03-08T05:22:48;0.70;82.00
16627;DHT22;8427;52.204;7.202;2024-03-08T05:25:17;0.50;82.10
16627;DHT22;8427;52.204;7.202;2024-03-08T05:27:45;0.50;82.10
16627;DHT22;8427;52.204;7.202;2024-03-08T05:30:15;0.70;81.90
16627;DHT22;8427;52.204;7.202;2024-03-08T05:32:43;0.60;81.90
16627;DHT22;8427;52.204;7.202;2024-03-08T05:35:12;0.70;81.80
16627;DHT22;8427;52.204;7.202;2024-03-08T05:37:42;0.80;82.10
16627;DHT22;8427;52.204;7.202;2024-03-08T05:40:10;0.50;82.10
16627;DHT22;8427;52.204;7.202;2024-03-08T05:42:44;0.60;81.90
16627;DHT22;8427;52.204;7.202;2024-03-08T05:45:12;0.60;81.90
16627;DHT22;8427;52.204;7.202;2024-03-08T05:47:42;0.80;82.20
16627;DHT22;8427;52.204;7.202;2024-03-08T05:50:10;0.70;81.90
16627;DHT22;8427;52.204;7.202;2024-03-08T05:52:38;0.70;81.70
16627;DHT22;8427;52.204;7.202;2024-03-08T05:55:07;0.70;81.50
16627;DHT22;8427;52.204;7.202;2024-03-08T05:57:36;0.50;81.70
16627;DHT22;8427;52.204;7.202;2024-03-08T06:00:07;0.50;81.60
16627;DHT22;8427;52.204;7.202;2024-03-08T06:02:37;0.60;81.70
16627;DHT22;8427;52.204;7.202;2024-03-08T06:05:10;0.50;81.50
16627;DHT22;8427;52.204;7.202;2024-03-08T06:07:38;0.70;81.30
16627;DHT22;8427;52.204;7.202;2024-03-08T06:10:08;0.70;81.30
16627;DHT22;8427;52.204;7.202;2024-03-08T06:12:37;0.70;81.20
16627;DHT22;8427;52.204;7.202;2024-03-08T06:15:09;0.70;81.40
16627;DHT22;8427;52.204;7.202;2024-03-08T06:17:41;0.60;81.20
16627;DHT22;8427;52.204;7.202;2024-03-08T06:20:11;0.80;81.60
16627;DHT22;8427;52.204;7.202;2024-03-08T06:22:40;0.60;81.40
16627;DHT22;8427;52.204;7.202;2024-03-08T06:25:08;0.50;81.80
16627;DHT22;8427;52.204;7.202;2024-03-08T06:27:37;0.80;81.60
16627;DHT22;8427;52.204;7.202;2024-03-08T06:30:06;0.50;81.80
16627;DHT22;8427;52.204;7.202;2024-03-08T06:32:36;0.50;82.20
16627;DHT22;8427;52.204;7.202;2024-03-08T06:35:04;0.60;81.90
16627;DHT22;8427;52.204;7.202;2024-03-08T06:37:35;0.70;81.50
16627;DHT22;8427;52.204;7.202;2024-03-08T06:40:03;0.80;81.40
16627;DHT22;8427;52.204;7.202;2024-03-08T06:42:31;0.50;81.60
16627;DHT22;8427;52.204;7.202;2024-03-08T06:45:02;0.60;81.70
16627;DHT22;8427;52.204;7.202;2024-03-08T06:47:32;0.50;82.40
16627;DHT22;8427;52.204;7.202;2024-03-08T06:50:00;0.80;82.30
16627;DHT22;8427;52.204;7.202;2024-03-08T06:52:28;0.50;82.20
16627;DHT22;8427;52.204;7.202;2024-03-08T06:54:57;0.60;82.60
16627;DHT22;8427;52.204;7.202;2024-03-08T06:57:28;0.50;82.60
16627;DHT22;8427;52.204;7.202;2024-03-08T06:59:57;0.50;82.80
16627;DHT22;8427;52.204;7.202;2024-03-08T07:02:27;0.40;82.50
16627;DHT22;8427;52.204;7.202;2024-03-08T07:04:55;0.60;82.60
16627;DHT22;8427;52.204;7.202;2024-03-08T07:07:25;0.70;82.70
16627;DHT22;8427;52.204;7.202;2024-03-08T07:09:53;0.60;82.70
16627;DHT22;8427;52.204;7.202;2024-03-08T07:12:25;0.70;82.70
16627;DHT22;8427;52.204;7.202;2024-03-08T07:14:53;0.60;82.70
16627;DHT22;8427;52.204;7.202;2024-03-08T07:17:21;0.90;82.20
16627;DHT22;8427;52.204;7.202;2024-03-08T07:19:48;0.80;82.20
16627;DHT22;8427;52.204;7.202;2024-03-08T07:22:17;0.90;82.20
16627;DHT22;8427;52.204;7.202;2024-03-08T07:24:45;1.00;82.20
16627;DHT22;8427;52.204;7.202;2024-03-08T07:27:32;1.40;82.80
16627;DHT22;8427;52.204;7.202;2024-03-08T07:30:02;1.20;81.90
16627;DHT22;8427;52.204;7.202;2024-03-08T07:32:34;1.40;81.90
16627;DHT22;8427;52.204;7.202;2024-03-08T07:35:01;1.20;80.70
16627;DHT22;8427;52.204;7.202;2024-03-08T07:37:30;1.40;81.00
16627;DHT22;8427;52.204;7.202;2024-03-08T07:39:59;1.40;80.60
16627;DHT22;8427;52.204;7.202;2024-03-08T07:42:27;1.60;80.40
16627;DHT22;8427;52.204;7.202;2024-03-08T07:44:57;1.50;80.50
16627;DHT22;8427;52.204;7.202;2024-03-08T07:47:26;1.50;80.30
16627;DHT22;8427;52.204;7.202;2024-03-08T07:49:54;1.60;80.40
16627;DHT22;8427;52.204;7.202;2024-03-08T07:52:24;1.70;80.00
16627;DHT22;8427;52.204;7.202;2024-03-08T07:54:52;1.90;79.90
16627;DHT22;8427;52.204;7.202;2024-03-08T07:57:21;1.80;79.80
16627;DHT22;8427;52.204;7.202;2024-03-08T07:59:49;1.90;79.40
16627;DHT22;8427;52.204;7.202;2024-03-08T08:02:18;1.80;78.90
16627;DHT22;8427;52.204;7.202;2024-03-08T08:04:46;2.00;78.70
16627;DHT22;8427;52.204;7.202;2024-03-08T08:07:14;2.10;78.10
16627;DHT22;8427;52.204;7.202;2024-03-08T08:09:42;2.30;77.70
16627;DHT22;8427;52.204;7.202;2024-03-08T08:12:10;2.40;77.30
16627;DHT22;8427;52.204;7.202;2024-03-08T08:14:39;2.30;77.20
16627;DHT22;8427;52.204;7.202;2024-03-08T08:17:07;2.50;77.20
16627;DHT22;8427;52.204;7.202;2024-03-08T08:19:37;2.50;77.00
16627;DHT22;8427;52.204;7.202;2024-03-08T08:22:05;2.70;76.00
16627;DHT22;8427;52.204;7.202;2024-03-08T08:24:35;2.70;76.20
16627;DHT22;8427;52.204;7.202;2024-03-08T08:27:04;2.90;76.30
16627;DHT22;8427;52.204;7.202;2024-03-08T08:29:32;2.90;75.70
16627;DHT22;8427;52.204;7.202;2024-03-08T08:32:02;2.80;75.70
16627;DHT22;8427;52.204;7.202;2024-03-08T08:34:30;2.70;75.10
16627;DHT22;8427;52.204;7.202;2024-03-08T08:37:00;3.10;75.30
16627;DHT22;8427;52.204;7.202;2024-03-08T08:39:28;3.20;74.50
16627;DHT22;8427;52.204;7.202;2024-03-08T08:41:56;3.20;74.60
16627;DHT22;8427;52.204;7.202;2024-03-08T08:44:24;3.10;74.40
16627;DHT22;8427;52.204;7.202;2024-03-08T08:46:52;3.00;74.20
16627;DHT22;8427;52.204;7.202;2024-03-08T08:49:31;3.30;74.00
16627;DHT22;8427;52.204;7.202;2024-03-08T08:52:01;3.40;73.10
16627;DHT22;8427;52.204;7.202;2024-03-08T08:54:41;3.30;73.50
16627;DHT22;8427;52.204;7.202;2024-03-08T08:57:09;3.50;73.60
16627;DHT22;8427;52.204;7.202;2024-03-08T08:59:37;3.60;73.20
16627;DHT22;8427;52.204;7.202;2024-03-08T09:02:06;3.60;72.90
16627;DHT22;8427;52.204;7.202;2024-03-08T09:04:36;3.70;72.80
16627;DHT22;8427;52.204;7.202;2024-03-08T09:07:05;3.80;72.80
16627;DHT22;8427;52.204;7.202;2024-03-08T09:09:33;3.60;72.60
16627;DHT22;8427;52.204;7.202;2024-03-08T09:12:02;3.80;71.70
16627;DHT22;8427;52.204;7.202;2024-03-08T09:14:30;3.80;71.60
16627;DHT22;8427;52.204;7.202;2024-03-08T09:16:58;4.00;71.00
16627;DHT22;8427;52.204;7.202;2024-03-08T09:19:26;4.10;72.10
16627;DHT22;8427;52.204;7.202;2024-03-08T09:21:55;4.20;71.70
16627;DHT22;8427;52.204;7.202;2024-03-08T09:24:24;4.30;72.00
16627;DHT22;8427;52.204;7.202;2024-03-08T09:26:52;4.30;70.80
16627;DHT22;8427;52.204;7.202;2024-03-08T09:29:20;4.20;70.80
16627;DHT22;8427;52.204;7.202;2024-03-08T09:31:48;4.20;71.00
16627;DHT22;8427;52.204;7.202;2024-03-08T09:34:16;4.50;71.90
16627;DHT22;8427;52.204;7.202;2024-03-08T09:36:51;4.50;71.10
16627;DHT22;8427;52.204;7.202;2024-03-08T09:39:19;4.70;70.50
16627;DHT22;8427;52.204;7.202;2024-03-08T09:41:51;4.70;70.40
16627;DHT22;8427;52.204;7.202;2024-03-08T09:44:19;4.40;69.80
16627;DHT22;8427;52.204;7.202;2024-03-08T09:46:47;4.80;69.30
16627;DHT22;8427;52.204;7.202;2024-03-08T09:49:15;4.80;69.90
16627;DHT22;8427;52.204;7.202;2024-03-08T09:51:43;4.90;70.40
16627;DHT22;8427;52.204;7.202;2024-03-08T09:54:12;4.90;69.80
16627;DHT22;8427;52.204;7.202;2024-03-08T09:56:48;4.90;69.30
16627;DHT22;8427;52.204;7.202;2024-03-08T09:59:20;4.90;69.60
16627;DHT22;8427;52.204;7.202;2024-03-08T10:02:12;4.90;68.80
16627;DHT22;8427;52.204;7.202;2024-03-08T10:04:41;4.90;68.70
16627;DHT22;8427;52.204;7.202;2024-03-08T10:07:10;5.00;68.00
16627;DHT22;8427;52.204;7.202;2024-03-08T10:09:39;5.30;68.00
16627;DHT22;8427;52.204;7.202;2024-03-08T10:12:08;5.10;67.90
16627;DHT22;8427;52.204;7.202;2024-03-08T10:14:40;5.20;68.10
16627;DHT22;8427;52.204;7.202;2024-03-08T10:17:08;5.50;68.10
16627;DHT22;8427;52.204;7.202;2024-03-08T10:19:37;5.70;67.60
16627;DHT22;8427;52.204;7.202;2024-03-08T10:22:05;5.70;68.00
16627;DHT22;8427;52.204;7.202;2024-03-08T10:24:33;5.50;67.60
16627;DHT22;8427;52.204;7.202;2024-03-08T10:27:05;5.70;68.80
16627;DHT22;8427;52.204;7.202;2024-03-08T10:29:33;5.80;67.30
16627;DHT22;8427;52.204;7.202;2024-03-08T10:32:03;5.80;66.30
16627;DHT22;8427;52.204;7.202;2024-03-08T10:34:33;5.80;66.00
16627;DHT22;8427;52.204;7.202;2024-03-08T10:37:03;5.90;66.50
16627;DHT22;8427;52.204;7.202;2024-03-08T10:39:34;6.10;66.30
16627;DHT22;8427;52.204;7.202;2024-03-08T10:42:02;6.30;65.70
16627;DHT22;8427;52.204;7.202;2024-03-08T10:44:39;6.30;65.40
16627;DHT22;8427;52.204;7.202;2024-03-08T10:47:13;6.30;65.80
16627;DHT22;8427;52.204;7.202;2024-03-08T10:49:44;6.60;65.10
16627;DHT22;8427;52.204;7.202;2024-03-08T10:52:15;6.60;64.70
16627;DHT22;8427;52.204;7.202;2024-03-08T10:54:43;6.60;64.90
16627;DHT22;8427;52.204;7.202;2024-03-08T10:57:13;6.80;63.80
16627;DHT22;8427;52.204;7.202;2024-03-08T10:59:42;6.80;63.50
16627;DHT22;8427;52.204;7.202;2024-03-08T11:02:11;6.80;63.30
16627;DHT22;8427;52.204;7.202;2024-03-08T11:04:43;6.90;64.00
16627;DHT22;8427;52.204;7.202;2024-03-08T11:07:13;6.90;63.60
16627;DHT22;8427;52.204;7.202;2024-03-08T11:09:44;7.10;63.70
16627;DHT22;8427;52.204;7.202;2024-03-08T11:12:18;7.40;63.50
16627;DHT22;8427;52.204;7.202;2024-03-08T11:14:46;7.40;63.20
16627;DHT22;8427;52.204;7.202;2024-03-08T11:17:21;7.00;62.30
16627;DHT22;8427;52.204;7.202;2024-03-08T11:19:54;7.20;62.60
16627;DHT22;8427;52.204;7.202;2024-03-08T11:22:24;7.30;62.70
16627;DHT22;8427;52.204;7.202;2024-03-08T11:24:58;7.50;60.90
16627;DHT22;8427;52.204;7.202;2024-03-08T11:27:28;7.60;60.40
16627;DHT22;8427;52.204;7.202;2024-03-08T11:29:59;7.60;61.20
16627;DHT22;8427;52.204;7.202;2024-03-08T11:32:36;7.80;58.90
16627;DHT22;8427;52.204;7.202;2024-03-08T11:35:05;7.70;59.10
16627;DHT22;8427;52.204;7.202;2024-03-08T11:37:34;8.10;59.80
16627;DHT22;8427;52.204;7.202;2024-03-08T11:40:05;7.80;58.30
16627;DHT22;8427;52.204;7.202;2024-03-08T11:42:43;7.90;59.10
16627;DHT22;8427;52.204;7.202;2024-03-08T11:45:13;8.00;58.50
16627;DHT22;8427;52.204;7.202;2024-03-08T11:47:43;8.00;57.90
16627;DHT22;8427;52.204;7.202;2024-03-08T11:50:13;7.90;58.10
16627;DHT22;8427;52.204;7.202;2024-03-08T11:52:42;7.90;58.50
16627;DHT22;8427;52.204;7.202;2024-03-08T11:55:10;8.10;57.50
16627;DHT22;8427;52.204;7.202;2024-03-08T11:57:40;8.10;57.30
16627;DHT22;8427;52.204;7.202;2024-03-08T12:00:14;8.20;57.00
16627;DHT22;8427;52.204;7.202;2024-03-08T12:03:02;8.50;56.30
16627;DHT22;8427;52.204;7.202;2024-03-08T12:05:30;8.10;55.10
16627;DHT22;8427;52.204;7.202;2024-03-08T12:08:00;8.40;56.60
16627;DHT22;8427;52.204;7.202;2024-03-08T12:10:28;8.30;56.10
16627;DHT22;8427;52.204;7.202;2024-03-08T12:12:57;8.70;55.90
16627;DHT22;8427;52.204;7.202;2024-03-08T12:15:27;8.40;55.10
16627;DHT22;8427;52.204;7.202;2024-03-08T12:17:56;8.40;55.80
16627;DHT22;8427;52.204;7.202;2024-03-08T12:20:26;8.60;55.60
16627;DHT22;8427;52.204;7.202;2024-03-08T12:22:56;8.70;55.10
16627;DHT22;8427;52.204;7.202;2024-03-08T12:25:29;8.70;54.20
16627;DHT22;8427;52.204;7.202;2024-03-08T12:28:06;8.80;54.30
16627;DHT22;8427;52.204;7.202;2024-03-08T12:30:37;8.50;54.20
16627;DHT22;8427;52.204;7.202;2024-03-08T12:33:11;8.50;54.50
16627;DHT22;8427;52.204;7.202;2024-03-08T12:35:41;8.60;55.20
16627;DHT22;8427;52.204;7.202;2024-03-08T12:38:17;9.00;54.20
16627;DHT22;8427;52.204;7.202;2024-03-08T12:40:45;8.80;54.80
16627;DHT22;8427;52.204;7.202;2024-03-08T12:43:13;9.10;54.20
16627;DHT22;8427;52.204;7.202;2024-03-08T12:45:42;9.10;54.10
16627;DHT22;8427;52.204;7.202;2024-03-08T12:48:12;9.00;53.50
16627;DHT22;8427;52.204;7.202;2024-03-08T12:50:43;8.90;54.70
16627;DHT22;8427;52.204;7.202;2024-03-08T12:53:12;8.90;54.40
16627;DHT22;8427;52.204;7.202;2024-03-08T12:55:40;9.00;54.50
16627;DHT22;8427;52.204;7.202;2024-03-08T12:58:07;8.90;54.40
16627;DHT22;8427;52.204;7.202;2024-03-08T13:00:35;8.90;54.70
16627;DHT22;8427;52.204;7.202;2024-03-08T13:03:03;8.90;54.50
16627;DHT22;8427;52.204;7.202;2024-03-08T13:05:33;9.00;54.90
16627;DHT22;8427;52.204;7.202;2024-03-08T13:08:06;9.00;55.70
16627;DHT22;8427;52.204;7.202;2024-03-08T13:10:39;9.10;54.20
16627;DHT22;8427;52.204;7.202;2024-03-08T13:13:07;9.10;54.50
16627;DHT22;8427;52.204;7.202;2024-03-08T13:15:36;9.20;55.10
16627;DHT22;8427;52.204;7.202;2024-03-08T13:18:04;9.30;54.90
16627;DHT22;8427;52.204;7.202;2024-03-08T13:20:35;9.30;53.90
16627;DHT22;8427;52.204;7.202;2024-03-08T13:23:14;9.40;53.10
16627;DHT22;8427;52.204;7.202;2024-03-08T13:25:44;9.40;54.10
16627;DHT22;8427;52.204;7.202;2024-03-08T13:28:14;9.30;53.20
16627;DHT22;8427;52.204;7.202;2024-03-08T13:30:43;9.40;54.60
16627;DHT22;8427;52.204;7.202;2024-03-08T13:33:12;9.30;53.00
16627;DHT22;8427;52.204;7.202;2024-03-08T13:35:41;9.40;53.30
16627;DHT22;8427;52.204;7.202;2024-03-08T13:38:09;9.40;54.10
16627;DHT22;8427;52.204;7.202;2024-03-08T13:40:41;9.50;53.70
16627;DHT22;8427;52.204;7.202;2024-03-08T13:43:09;9.40;54.30
16627;DHT22;8427;52.204;7.202;2024-03-08T13:45:37;9.60;53.70
16627;DHT22;8427;52.204;7.202;2024-03-08T13:48:05;9.40;53.40
16627;DHT22;8427;52.204;7.202;2024-03-08T13:50:33;9.50;53.50
16627;DHT22;8427;52.204;7.202;2024-03-08T13:53:01;9.60;53.60
16627;DHT22;8427;52.204;7.202;2024-03-08T13:55:30;9.80;54.00
16627;DHT22;8427;52.204;7.202;2024-03-08T13:58:01;9.70;53.90
16627;DHT22;8427;52.204;7.202;2024-03-08T14:00:30;9.90;53.70
16627;DHT22;8427;52.204;7.202;2024-03-08T14:03:00;9.70;54.10
16627;DHT22;8427;52.204;7.202;2024-03-08T14:05:28;9.70;53.60
16627;DHT22;8427;52.204;7.202;2024-03-08T14:07:58;9.50;54.60
16627;DHT22;8427;52.204;7.202;2024-03-08T14:10:27;9.50;54.30
16627;DHT22;8427;52.204;7.202;2024-03-08T14:12:57;9.50;54.50
16627;DHT22;8427;52.204;7.202;2024-03-08T14:15:27;9.40;56.20
16627;DHT22;8427;52.204;7.202;2024-03-08T14:17:56;9.60;53.70
16627;DHT22;8427;52.204;7.202;2024-03-08T14:20:25;9.60;53.20
16627;DHT22;8427;52.204;7.202;2024-03-08T14:22:53;9.50;53.40
16627;DHT22;8427;52.204;7.202;2024-03-08T14:25:23;9.50;53.00
16627;DHT22;8427;52.204;7.202;2024-03-08T14:27:52;9.50;54.20
16627;DHT22;8427;52.204;7.202;2024-03-08T14:30:25;9.60;53.50
16627;DHT22;8427;52.204;7.202;2024-03-08T14:33:06;9.50;53.80
16627;DHT22;8427;52.204;7.202;2024-03-08T14:35:35;9.50;53.00
16627;DHT22;8427;52.204;7.202;2024-03-08T14:38:04;9.50;53.90
16627;DHT22;8427;52.204;7.202;2024-03-08T14:40:35;9.50;53.60
16627;DHT22;8427;52.204;7.202;2024-03-08T14:43:05;9.60;53.20
16627;DHT22;8427;52.204;7.202;2024-03-08T14:45:33;9.60;53.10
16627;DHT22;8427;52.204;7.202;2024-03-08T14:48:02;9.40;53.70
16627;DHT22;8427;52.204;7.202;2024-03-08T14:50:32;9.50;53.30
16627;DHT22;8427;52.204;7.202;2024-03-08T14:53:03;9.40;53.30
16627;DHT22;8427;52.204;7.202;2024-03-08T14:55:33;9.30;53.30
16627;DHT22;8427;52.204;7.202;2024-03-08T14:58:02;9.60;53.10
16627;DHT22;8427;52.204;7.202;2024-03-08T15:00:31;9.50;53.00
16627;DHT22;8427;52.204;7.202;2024-03-08T15:03:02;9.70;53.90
16627;DHT22;8427;52.204;7.202;2024-03-08T15:05:34;9.40;53.90
16627;DHT22;8427;52.204;7.202;2024-03-08T15:08:05;9.50;53.50
16627;DHT22;8427;52.204;7.202;2024-03-08T15:10:38;9.40;54.00
16627;DHT22;8427;52.204;7.202;2024-03-08T15:13:08;9.30;54.10
16627;DHT22;8427;52.204;7.202;2024-03-08T15:15:42;9.50;54.50
16627;DHT22;8427;52.204;7.202;2024-03-08T15:18:10;9.60;54.10
16627;DHT22;8427;52.204;7.202;2024-03-08T15:20:40;9.50;53.90
16627;DHT22;8427;52.204;7.202;2024-03-08T15:23:08;9.60;53.70
16627;DHT22;8427;52.204;7.202;2024-03-08T15:25:36;9.50;55.20
16627;DHT22;8427;52.204;7.202;2024-03-08T15:28:08;9.30;55.10
16627;DHT22;8427;52.204;7.202;2024-03-08T15:30:41;9.20;55.10
16627;DHT22;8427;52.204;7.202;2024-03-08T15:33:13;9.20;55.30
16627;DHT22;8427;52.204;7.202;2024-03-08T15:35:43;9.20;55.70
16627;DHT22;8427;52.204;7.202;2024-03-08T15:38:15;9.10;55.70
16627;DHT22;8427;52.204;7.202;2024-03-08T15:40:45;9.20;56.80
16627;DHT22;8427;52.204;7.202;2024-03-08T15:43:14;9.10;56.40
16627;DHT22;8427;52.204;7.202;2024-03-08T15:45:43;9.20;57.10
16627;DHT22;8427;52.204;7.202;2024-03-08T15:48:11;9.10;55.60
16627;DHT22;8427;52.204;7.202;2024-03-08T15:50:39;9.00;55.20
16627;DHT22;8427;52.204;7.202;2024-03-08T15:53:09;9.00;55.00
16627;DHT22;8427;52.204;7.202;2024-03-08T15:55:39;9.10;55.00
16627;DHT22;8427;52.204;7.202;2024-03-08T15:58:08;9.10;56.10
16627;DHT22;8427;52.204;7.202;2024-03-08T16:00:39;8.90;55.30
16627;DHT22;8427;52.204;7.202;2024-03-08T16:03:14;9.00;55.70
16627;DHT22;8427;52.204;7.202;2024-03-08T16:05:42;9.00;55.50
16627;DHT22;8427;52.204;7.202;2024-03-08T16:08:13;9.00;56.30
16627;DHT22;8427;52.204;7.202;2024-03-08T16:10:43;8.90;56.00
16627;DHT22;8427;52.204;7.202;2024-03-08T16:13:16;8.90;56.50
16627;DHT22;8427;52.204;7.202;2024-03-08T16:15:44;8.70;57.00